<?xml version="1.0" encoding="UTF-8" standalone="no" ?>
<gpx xmlns="http://www.topografix.com/GPX/1/1" xmlns:xsi="http://www.w3.org/2001/XMLSchema-instance" xsi:schemaLocation="http://www.topografix.com/GPX/1/1 http://www.topografix.com/GPX/1/1/gpx.xsd" version="1.1" creator="VisuGPX - https://www.visugpx.com">
  <metadata>
    <name>Col de Razine</name>
  </metadata>
  <trk>
    <name><![CDATA[2023-02-17 09:25:57]]></name>
    <trkseg>
      <trkpt lat="44.77618" lon="6.76708">
        <ele>1829.53</ele>
        <time>2023-02-16T08:22:02Z</time>
      </trkpt>
      <trkpt lat="44.77616" lon="6.76714">
        <ele>1832.41</ele>
        <time>2023-02-16T08:23:39Z</time>
      </trkpt>
      <trkpt lat="44.77619" lon="6.76716">
        <ele>1831.45</ele>
        <time>2023-02-16T08:25:10Z</time>
      </trkpt>
      <trkpt lat="44.7762" lon="6.76738">
        <ele>1833.37</ele>
        <time>2023-02-16T08:25:30Z</time>
      </trkpt>
      <trkpt lat="44.77626" lon="6.76756">
        <ele>1837.22</ele>
        <time>2023-02-16T08:25:55Z</time>
      </trkpt>
      <trkpt lat="44.77638" lon="6.76748">
        <ele>1839.14</ele>
        <time>2023-02-16T08:26:18Z</time>
      </trkpt>
      <trkpt lat="44.77646" lon="6.76738">
        <ele>1841.06</ele>
        <time>2023-02-16T08:26:33Z</time>
      </trkpt>
      <trkpt lat="44.77653" lon="6.76731">
        <ele>1841.06</ele>
        <time>2023-02-16T08:28:36Z</time>
      </trkpt>
      <trkpt lat="44.77664" lon="6.76721">
        <ele>1841.54</ele>
        <time>2023-02-16T08:28:54Z</time>
      </trkpt>
      <trkpt lat="44.77674" lon="6.76717">
        <ele>1841.54</ele>
        <time>2023-02-16T08:29:04Z</time>
      </trkpt>
      <trkpt lat="44.77686" lon="6.76713">
        <ele>1841.54</ele>
        <time>2023-02-16T08:29:18Z</time>
      </trkpt>
      <trkpt lat="44.77703" lon="6.76711">
        <ele>1841.54</ele>
        <time>2023-02-16T08:29:37Z</time>
      </trkpt>
      <trkpt lat="44.77714" lon="6.76707">
        <ele>1841.54</ele>
        <time>2023-02-16T08:29:51Z</time>
      </trkpt>
      <trkpt lat="44.77724" lon="6.76703">
        <ele>1842.02</ele>
        <time>2023-02-16T08:30:05Z</time>
      </trkpt>
      <trkpt lat="44.77748" lon="6.76689">
        <ele>1842.02</ele>
        <time>2023-02-16T08:30:36Z</time>
      </trkpt>
      <trkpt lat="44.77764" lon="6.7668">
        <ele>1842.02</ele>
        <time>2023-02-16T08:30:51Z</time>
      </trkpt>
      <trkpt lat="44.77777" lon="6.76674">
        <ele>1843.47</ele>
        <time>2023-02-16T08:31:05Z</time>
      </trkpt>
      <trkpt lat="44.77788" lon="6.76671">
        <ele>1843.95</ele>
        <time>2023-02-16T08:31:19Z</time>
      </trkpt>
      <trkpt lat="44.77797" lon="6.76668">
        <ele>1844.91</ele>
        <time>2023-02-16T08:31:32Z</time>
      </trkpt>
      <trkpt lat="44.77805" lon="6.7666">
        <ele>1845.39</ele>
        <time>2023-02-16T08:31:45Z</time>
      </trkpt>
      <trkpt lat="44.77814" lon="6.76653">
        <ele>1845.87</ele>
        <time>2023-02-16T08:31:58Z</time>
      </trkpt>
      <trkpt lat="44.77827" lon="6.76647">
        <ele>1846.35</ele>
        <time>2023-02-16T08:32:13Z</time>
      </trkpt>
      <trkpt lat="44.77841" lon="6.76646">
        <ele>1846.83</ele>
        <time>2023-02-16T08:32:29Z</time>
      </trkpt>
      <trkpt lat="44.77856" lon="6.76645">
        <ele>1847.31</ele>
        <time>2023-02-16T08:32:46Z</time>
      </trkpt>
      <trkpt lat="44.77873" lon="6.76641">
        <ele>1847.31</ele>
        <time>2023-02-16T08:33:03Z</time>
      </trkpt>
      <trkpt lat="44.77888" lon="6.76639">
        <ele>1847.31</ele>
        <time>2023-02-16T08:33:19Z</time>
      </trkpt>
      <trkpt lat="44.77901" lon="6.76638">
        <ele>1847.79</ele>
        <time>2023-02-16T08:33:34Z</time>
      </trkpt>
      <trkpt lat="44.77913" lon="6.76635">
        <ele>1848.27</ele>
        <time>2023-02-16T08:33:48Z</time>
      </trkpt>
      <trkpt lat="44.77924" lon="6.76633">
        <ele>1849.71</ele>
        <time>2023-02-16T08:34:01Z</time>
      </trkpt>
      <trkpt lat="44.77933" lon="6.76631">
        <ele>1851.16</ele>
        <time>2023-02-16T08:34:14Z</time>
      </trkpt>
      <trkpt lat="44.77943" lon="6.76631">
        <ele>1852.6</ele>
        <time>2023-02-16T08:34:27Z</time>
      </trkpt>
      <trkpt lat="44.77953" lon="6.7663">
        <ele>1853.56</ele>
        <time>2023-02-16T08:34:40Z</time>
      </trkpt>
      <trkpt lat="44.77963" lon="6.76631">
        <ele>1854.52</ele>
        <time>2023-02-16T08:34:54Z</time>
      </trkpt>
      <trkpt lat="44.77972" lon="6.7663">
        <ele>1855.96</ele>
        <time>2023-02-16T08:35:08Z</time>
      </trkpt>
      <trkpt lat="44.77982" lon="6.76627">
        <ele>1857.89</ele>
        <time>2023-02-16T08:35:23Z</time>
      </trkpt>
      <trkpt lat="44.77991" lon="6.76622">
        <ele>1859.33</ele>
        <time>2023-02-16T08:35:36Z</time>
      </trkpt>
      <trkpt lat="44.78006" lon="6.7661">
        <ele>1861.73</ele>
        <time>2023-02-16T08:36:01Z</time>
      </trkpt>
      <trkpt lat="44.78014" lon="6.76601">
        <ele>1863.17</ele>
        <time>2023-02-16T08:36:15Z</time>
      </trkpt>
      <trkpt lat="44.78021" lon="6.76593">
        <ele>1864.13</ele>
        <time>2023-02-16T08:36:28Z</time>
      </trkpt>
      <trkpt lat="44.78029" lon="6.76584">
        <ele>1865.58</ele>
        <time>2023-02-16T08:36:41Z</time>
      </trkpt>
      <trkpt lat="44.78037" lon="6.76579">
        <ele>1866.06</ele>
        <time>2023-02-16T08:36:55Z</time>
      </trkpt>
      <trkpt lat="44.78047" lon="6.76574">
        <ele>1867.02</ele>
        <time>2023-02-16T08:37:07Z</time>
      </trkpt>
      <trkpt lat="44.78057" lon="6.7657">
        <ele>1867.5</ele>
        <time>2023-02-16T08:37:20Z</time>
      </trkpt>
      <trkpt lat="44.78066" lon="6.76566">
        <ele>1868.46</ele>
        <time>2023-02-16T08:37:32Z</time>
      </trkpt>
      <trkpt lat="44.78075" lon="6.76563">
        <ele>1869.9</ele>
        <time>2023-02-16T08:37:45Z</time>
      </trkpt>
      <trkpt lat="44.78084" lon="6.76558">
        <ele>1871.34</ele>
        <time>2023-02-16T08:37:59Z</time>
      </trkpt>
      <trkpt lat="44.78093" lon="6.76555">
        <ele>1872.3</ele>
        <time>2023-02-16T08:38:12Z</time>
      </trkpt>
      <trkpt lat="44.78102" lon="6.7655">
        <ele>1873.27</ele>
        <time>2023-02-16T08:38:26Z</time>
      </trkpt>
      <trkpt lat="44.78113" lon="6.76545">
        <ele>1873.75</ele>
        <time>2023-02-16T08:38:40Z</time>
      </trkpt>
      <trkpt lat="44.78129" lon="6.76537">
        <ele>1874.71</ele>
        <time>2023-02-16T08:39:02Z</time>
      </trkpt>
      <trkpt lat="44.78146" lon="6.76522">
        <ele>1875.67</ele>
        <time>2023-02-16T08:39:25Z</time>
      </trkpt>
      <trkpt lat="44.78154" lon="6.76515">
        <ele>1876.15</ele>
        <time>2023-02-16T08:39:36Z</time>
      </trkpt>
      <trkpt lat="44.78163" lon="6.76505">
        <ele>1877.11</ele>
        <time>2023-02-16T08:39:51Z</time>
      </trkpt>
      <trkpt lat="44.78173" lon="6.76498">
        <ele>1877.59</ele>
        <time>2023-02-16T08:40:04Z</time>
      </trkpt>
      <trkpt lat="44.78181" lon="6.76491">
        <ele>1878.07</ele>
        <time>2023-02-16T08:40:17Z</time>
      </trkpt>
      <trkpt lat="44.7819" lon="6.76485">
        <ele>1878.55</ele>
        <time>2023-02-16T08:41:10Z</time>
      </trkpt>
      <trkpt lat="44.78204" lon="6.76483">
        <ele>1880.48</ele>
        <time>2023-02-16T08:41:26Z</time>
      </trkpt>
      <trkpt lat="44.78217" lon="6.76482">
        <ele>1881.92</ele>
        <time>2023-02-16T08:41:40Z</time>
      </trkpt>
      <trkpt lat="44.78231" lon="6.7648">
        <ele>1883.36</ele>
        <time>2023-02-16T08:41:55Z</time>
      </trkpt>
      <trkpt lat="44.78241" lon="6.7648">
        <ele>1884.32</ele>
        <time>2023-02-16T08:42:09Z</time>
      </trkpt>
      <trkpt lat="44.78252" lon="6.76479">
        <ele>1885.76</ele>
        <time>2023-02-16T08:42:21Z</time>
      </trkpt>
      <trkpt lat="44.78263" lon="6.7648">
        <ele>1887.69</ele>
        <time>2023-02-16T08:42:34Z</time>
      </trkpt>
      <trkpt lat="44.78274" lon="6.7648">
        <ele>1889.13</ele>
        <time>2023-02-16T08:42:47Z</time>
      </trkpt>
      <trkpt lat="44.78293" lon="6.76483">
        <ele>1891.53</ele>
        <time>2023-02-16T08:43:10Z</time>
      </trkpt>
      <trkpt lat="44.78303" lon="6.76487">
        <ele>1892.97</ele>
        <time>2023-02-16T08:43:23Z</time>
      </trkpt>
      <trkpt lat="44.78314" lon="6.76498">
        <ele>1894.9</ele>
        <time>2023-02-16T08:43:42Z</time>
      </trkpt>
      <trkpt lat="44.78328" lon="6.76513">
        <ele>1897.3</ele>
        <time>2023-02-16T08:44:08Z</time>
      </trkpt>
      <trkpt lat="44.78336" lon="6.7652">
        <ele>1898.26</ele>
        <time>2023-02-16T08:44:22Z</time>
      </trkpt>
      <trkpt lat="44.78345" lon="6.76525">
        <ele>1899.7</ele>
        <time>2023-02-16T08:44:35Z</time>
      </trkpt>
      <trkpt lat="44.78356" lon="6.76526">
        <ele>1900.18</ele>
        <time>2023-02-16T08:44:50Z</time>
      </trkpt>
      <trkpt lat="44.78374" lon="6.76526">
        <ele>1902.11</ele>
        <time>2023-02-16T08:45:16Z</time>
      </trkpt>
      <trkpt lat="44.78383" lon="6.76525">
        <ele>1903.55</ele>
        <time>2023-02-16T08:45:30Z</time>
      </trkpt>
      <trkpt lat="44.78402" lon="6.76525">
        <ele>1905.95</ele>
        <time>2023-02-16T08:45:59Z</time>
      </trkpt>
      <trkpt lat="44.78421" lon="6.76532">
        <ele>1908.83</ele>
        <time>2023-02-16T08:46:28Z</time>
      </trkpt>
      <trkpt lat="44.78431" lon="6.76531">
        <ele>1909.8</ele>
        <time>2023-02-16T08:46:42Z</time>
      </trkpt>
      <trkpt lat="44.78442" lon="6.76529">
        <ele>1909.8</ele>
        <time>2023-02-16T08:46:57Z</time>
      </trkpt>
      <trkpt lat="44.78452" lon="6.7653">
        <ele>1911.24</ele>
        <time>2023-02-16T08:47:12Z</time>
      </trkpt>
      <trkpt lat="44.78461" lon="6.76529">
        <ele>1912.2</ele>
        <time>2023-02-16T08:47:24Z</time>
      </trkpt>
      <trkpt lat="44.7847" lon="6.76524">
        <ele>1913.64</ele>
        <time>2023-02-16T08:47:38Z</time>
      </trkpt>
      <trkpt lat="44.78485" lon="6.7651">
        <ele>1915.08</ele>
        <time>2023-02-16T08:48:03Z</time>
      </trkpt>
      <trkpt lat="44.78493" lon="6.76503">
        <ele>1916.04</ele>
        <time>2023-02-16T08:48:17Z</time>
      </trkpt>
      <trkpt lat="44.78508" lon="6.76503">
        <ele>1917.49</ele>
        <time>2023-02-16T08:48:41Z</time>
      </trkpt>
      <trkpt lat="44.78525" lon="6.76509">
        <ele>1919.89</ele>
        <time>2023-02-16T08:49:08Z</time>
      </trkpt>
      <trkpt lat="44.78541" lon="6.76519">
        <ele>1922.29</ele>
        <time>2023-02-16T08:49:35Z</time>
      </trkpt>
      <trkpt lat="44.78555" lon="6.76533">
        <ele>1924.7</ele>
        <time>2023-02-16T08:50:03Z</time>
      </trkpt>
      <trkpt lat="44.78569" lon="6.76548">
        <ele>1926.14</ele>
        <time>2023-02-16T08:50:29Z</time>
      </trkpt>
      <trkpt lat="44.78585" lon="6.76554">
        <ele>1928.06</ele>
        <time>2023-02-16T08:50:53Z</time>
      </trkpt>
      <trkpt lat="44.78594" lon="6.76557">
        <ele>1928.54</ele>
        <time>2023-02-16T08:51:07Z</time>
      </trkpt>
      <trkpt lat="44.78609" lon="6.7656">
        <ele>1930.95</ele>
        <time>2023-02-16T08:51:33Z</time>
      </trkpt>
      <trkpt lat="44.78625" lon="6.76565">
        <ele>1933.83</ele>
        <time>2023-02-16T08:52:02Z</time>
      </trkpt>
      <trkpt lat="44.78634" lon="6.76568">
        <ele>1933.83</ele>
        <time>2023-02-16T08:52:14Z</time>
      </trkpt>
      <trkpt lat="44.78645" lon="6.7657">
        <ele>1935.27</ele>
        <time>2023-02-16T08:52:37Z</time>
      </trkpt>
      <trkpt lat="44.78659" lon="6.76573">
        <ele>1937.19</ele>
        <time>2023-02-16T08:53:01Z</time>
      </trkpt>
      <trkpt lat="44.78672" lon="6.76576">
        <ele>1939.12</ele>
        <time>2023-02-16T08:53:27Z</time>
      </trkpt>
      <trkpt lat="44.78682" lon="6.76575">
        <ele>1940.56</ele>
        <time>2023-02-16T08:53:40Z</time>
      </trkpt>
      <trkpt lat="44.78696" lon="6.76567">
        <ele>1942</ele>
        <time>2023-02-16T08:53:58Z</time>
      </trkpt>
      <trkpt lat="44.78706" lon="6.76561">
        <ele>1941.52</ele>
        <time>2023-02-16T08:54:13Z</time>
      </trkpt>
      <trkpt lat="44.78715" lon="6.76553">
        <ele>1942.96</ele>
        <time>2023-02-16T08:54:27Z</time>
      </trkpt>
      <trkpt lat="44.78725" lon="6.76551">
        <ele>1943.92</ele>
        <time>2023-02-16T08:54:42Z</time>
      </trkpt>
      <trkpt lat="44.78741" lon="6.76542">
        <ele>1946.33</ele>
        <time>2023-02-16T08:55:09Z</time>
      </trkpt>
      <trkpt lat="44.78749" lon="6.76536">
        <ele>1947.77</ele>
        <time>2023-02-16T08:55:32Z</time>
      </trkpt>
      <trkpt lat="44.78756" lon="6.76525">
        <ele>1948.73</ele>
        <time>2023-02-16T08:55:46Z</time>
      </trkpt>
      <trkpt lat="44.7876" lon="6.76513">
        <ele>1949.69</ele>
        <time>2023-02-16T08:55:58Z</time>
      </trkpt>
      <trkpt lat="44.78771" lon="6.76502">
        <ele>1952.09</ele>
        <time>2023-02-16T08:56:28Z</time>
      </trkpt>
      <trkpt lat="44.78785" lon="6.76495">
        <ele>1955.46</ele>
        <time>2023-02-16T08:56:54Z</time>
      </trkpt>
      <trkpt lat="44.78796" lon="6.76494">
        <ele>1958.34</ele>
        <time>2023-02-16T08:57:19Z</time>
      </trkpt>
      <trkpt lat="44.78809" lon="6.76492">
        <ele>1960.75</ele>
        <time>2023-02-16T08:57:44Z</time>
      </trkpt>
      <trkpt lat="44.78819" lon="6.76485">
        <ele>1964.11</ele>
        <time>2023-02-16T08:58:08Z</time>
      </trkpt>
      <trkpt lat="44.78831" lon="6.7648">
        <ele>1966.99</ele>
        <time>2023-02-16T08:58:35Z</time>
      </trkpt>
      <trkpt lat="44.78841" lon="6.7648">
        <ele>1968.44</ele>
        <time>2023-02-16T08:58:49Z</time>
      </trkpt>
      <trkpt lat="44.7885" lon="6.76483">
        <ele>1971.32</ele>
        <time>2023-02-16T08:59:19Z</time>
      </trkpt>
      <trkpt lat="44.78861" lon="6.76484">
        <ele>1974.2</ele>
        <time>2023-02-16T08:59:48Z</time>
      </trkpt>
      <trkpt lat="44.78871" lon="6.76489">
        <ele>1976.61</ele>
        <time>2023-02-16T09:00:14Z</time>
      </trkpt>
      <trkpt lat="44.7888" lon="6.76505">
        <ele>1980.45</ele>
        <time>2023-02-16T09:00:39Z</time>
      </trkpt>
      <trkpt lat="44.78889" lon="6.76515">
        <ele>1984.3</ele>
        <time>2023-02-16T09:01:04Z</time>
      </trkpt>
      <trkpt lat="44.78899" lon="6.76516">
        <ele>1987.18</ele>
        <time>2023-02-16T09:01:27Z</time>
      </trkpt>
      <trkpt lat="44.78911" lon="6.76516">
        <ele>1990.55</ele>
        <time>2023-02-16T09:01:57Z</time>
      </trkpt>
      <trkpt lat="44.78925" lon="6.76518">
        <ele>1994.39</ele>
        <time>2023-02-16T09:02:33Z</time>
      </trkpt>
      <trkpt lat="44.7894" lon="6.76517">
        <ele>1999.2</ele>
        <time>2023-02-16T09:03:10Z</time>
      </trkpt>
      <trkpt lat="44.78947" lon="6.76516">
        <ele>2000.64</ele>
        <time>2023-02-16T09:03:58Z</time>
      </trkpt>
      <trkpt lat="44.78958" lon="6.76515">
        <ele>2001.6</ele>
        <time>2023-02-16T09:04:11Z</time>
      </trkpt>
      <trkpt lat="44.78967" lon="6.76515">
        <ele>2002.08</ele>
        <time>2023-02-16T09:04:24Z</time>
      </trkpt>
      <trkpt lat="44.78981" lon="6.76519">
        <ele>2005.93</ele>
        <time>2023-02-16T09:04:51Z</time>
      </trkpt>
      <trkpt lat="44.7899" lon="6.76522">
        <ele>2008.81</ele>
        <time>2023-02-16T09:05:16Z</time>
      </trkpt>
      <trkpt lat="44.79" lon="6.76528">
        <ele>2013.14</ele>
        <time>2023-02-16T09:05:41Z</time>
      </trkpt>
      <trkpt lat="44.79014" lon="6.7654">
        <ele>2016.5</ele>
        <time>2023-02-16T09:06:10Z</time>
      </trkpt>
      <trkpt lat="44.79023" lon="6.76541">
        <ele>2018.43</ele>
        <time>2023-02-16T09:06:24Z</time>
      </trkpt>
      <trkpt lat="44.79033" lon="6.76542">
        <ele>2019.39</ele>
        <time>2023-02-16T09:06:38Z</time>
      </trkpt>
      <trkpt lat="44.79043" lon="6.7654">
        <ele>2020.83</ele>
        <time>2023-02-16T09:06:52Z</time>
      </trkpt>
      <trkpt lat="44.79053" lon="6.76537">
        <ele>2021.79</ele>
        <time>2023-02-16T09:07:07Z</time>
      </trkpt>
      <trkpt lat="44.79069" lon="6.76538">
        <ele>2024.67</ele>
        <time>2023-02-16T09:07:36Z</time>
      </trkpt>
      <trkpt lat="44.79078" lon="6.76542">
        <ele>2026.12</ele>
        <time>2023-02-16T09:07:51Z</time>
      </trkpt>
      <trkpt lat="44.7909" lon="6.76549">
        <ele>2029.48</ele>
        <time>2023-02-16T09:08:19Z</time>
      </trkpt>
      <trkpt lat="44.79103" lon="6.76551">
        <ele>2033.33</ele>
        <time>2023-02-16T09:08:47Z</time>
      </trkpt>
      <trkpt lat="44.79118" lon="6.76558">
        <ele>2035.25</ele>
        <time>2023-02-16T09:09:16Z</time>
      </trkpt>
      <trkpt lat="44.79132" lon="6.76561">
        <ele>2038.13</ele>
        <time>2023-02-16T09:09:45Z</time>
      </trkpt>
      <trkpt lat="44.79142" lon="6.76546">
        <ele>2039.09</ele>
        <time>2023-02-16T09:10:13Z</time>
      </trkpt>
      <trkpt lat="44.79149" lon="6.76532">
        <ele>2041.98</ele>
        <time>2023-02-16T09:10:39Z</time>
      </trkpt>
      <trkpt lat="44.79164" lon="6.76522">
        <ele>2045.34</ele>
        <time>2023-02-16T09:11:10Z</time>
      </trkpt>
      <trkpt lat="44.79175" lon="6.76517">
        <ele>2047.75</ele>
        <time>2023-02-16T09:11:38Z</time>
      </trkpt>
      <trkpt lat="44.79184" lon="6.7652">
        <ele>2047.75</ele>
        <time>2023-02-16T09:12:41Z</time>
      </trkpt>
      <trkpt lat="44.79203" lon="6.76528">
        <ele>2048.71</ele>
        <time>2023-02-16T09:13:01Z</time>
      </trkpt>
      <trkpt lat="44.79222" lon="6.76535">
        <ele>2049.19</ele>
        <time>2023-02-16T09:13:21Z</time>
      </trkpt>
      <trkpt lat="44.79233" lon="6.76539">
        <ele>2050.15</ele>
        <time>2023-02-16T09:13:37Z</time>
      </trkpt>
      <trkpt lat="44.79243" lon="6.76538">
        <ele>2050.15</ele>
        <time>2023-02-16T09:13:51Z</time>
      </trkpt>
      <trkpt lat="44.79253" lon="6.76539">
        <ele>2051.11</ele>
        <time>2023-02-16T09:14:18Z</time>
      </trkpt>
      <trkpt lat="44.79267" lon="6.76537">
        <ele>2053.51</ele>
        <time>2023-02-16T09:14:45Z</time>
      </trkpt>
      <trkpt lat="44.79276" lon="6.76533">
        <ele>2054.96</ele>
        <time>2023-02-16T09:14:58Z</time>
      </trkpt>
      <trkpt lat="44.79295" lon="6.76527">
        <ele>2058.32</ele>
        <time>2023-02-16T09:15:28Z</time>
      </trkpt>
      <trkpt lat="44.79309" lon="6.7653">
        <ele>2062.17</ele>
        <time>2023-02-16T09:15:53Z</time>
      </trkpt>
      <trkpt lat="44.79319" lon="6.76539">
        <ele>2065.05</ele>
        <time>2023-02-16T09:16:17Z</time>
      </trkpt>
      <trkpt lat="44.79323" lon="6.76552">
        <ele>2067.93</ele>
        <time>2023-02-16T09:16:42Z</time>
      </trkpt>
      <trkpt lat="44.79329" lon="6.76567">
        <ele>2070.82</ele>
        <time>2023-02-16T09:17:08Z</time>
      </trkpt>
      <trkpt lat="44.79339" lon="6.76577">
        <ele>2073.22</ele>
        <time>2023-02-16T09:17:34Z</time>
      </trkpt>
      <trkpt lat="44.79343" lon="6.76567">
        <ele>2074.18</ele>
        <time>2023-02-16T09:19:26Z</time>
      </trkpt>
      <trkpt lat="44.79353" lon="6.76555">
        <ele>2076.59</ele>
        <time>2023-02-16T09:19:51Z</time>
      </trkpt>
      <trkpt lat="44.79368" lon="6.76549">
        <ele>2078.03</ele>
        <time>2023-02-16T09:20:15Z</time>
      </trkpt>
      <trkpt lat="44.7938" lon="6.76545">
        <ele>2081.39</ele>
        <time>2023-02-16T09:20:40Z</time>
      </trkpt>
      <trkpt lat="44.79388" lon="6.76557">
        <ele>2084.28</ele>
        <time>2023-02-16T09:21:08Z</time>
      </trkpt>
      <trkpt lat="44.79399" lon="6.76564">
        <ele>2088.12</ele>
        <time>2023-02-16T09:21:36Z</time>
      </trkpt>
      <trkpt lat="44.79411" lon="6.76571">
        <ele>2091</ele>
        <time>2023-02-16T09:22:01Z</time>
      </trkpt>
      <trkpt lat="44.79426" lon="6.76564">
        <ele>2093.89</ele>
        <time>2023-02-16T09:22:28Z</time>
      </trkpt>
      <trkpt lat="44.79444" lon="6.76562">
        <ele>2095.81</ele>
        <time>2023-02-16T09:22:54Z</time>
      </trkpt>
      <trkpt lat="44.79453" lon="6.76562">
        <ele>2097.25</ele>
        <time>2023-02-16T09:23:08Z</time>
      </trkpt>
      <trkpt lat="44.7947" lon="6.76559">
        <ele>2097.73</ele>
        <time>2023-02-16T09:23:36Z</time>
      </trkpt>
      <trkpt lat="44.79496" lon="6.76557">
        <ele>2092.45</ele>
        <time>2023-02-16T09:24:00Z</time>
      </trkpt>
      <trkpt lat="44.79511" lon="6.76558">
        <ele>2091.49</ele>
        <time>2023-02-16T09:24:14Z</time>
      </trkpt>
      <trkpt lat="44.79522" lon="6.76563">
        <ele>2091.49</ele>
        <time>2023-02-16T09:24:29Z</time>
      </trkpt>
      <trkpt lat="44.79532" lon="6.76571">
        <ele>2091</ele>
        <time>2023-02-16T09:24:42Z</time>
      </trkpt>
      <trkpt lat="44.79541" lon="6.76575">
        <ele>2091.49</ele>
        <time>2023-02-16T09:24:57Z</time>
      </trkpt>
      <trkpt lat="44.79554" lon="6.76577">
        <ele>2089.56</ele>
        <time>2023-02-16T09:25:23Z</time>
      </trkpt>
      <trkpt lat="44.79558" lon="6.7659">
        <ele>2088.6</ele>
        <time>2023-02-16T09:25:35Z</time>
      </trkpt>
      <trkpt lat="44.79564" lon="6.76602">
        <ele>2088.6</ele>
        <time>2023-02-16T09:25:49Z</time>
      </trkpt>
      <trkpt lat="44.79574" lon="6.76617">
        <ele>2090.52</ele>
        <time>2023-02-16T09:26:12Z</time>
      </trkpt>
      <trkpt lat="44.79579" lon="6.76627">
        <ele>2091.97</ele>
        <time>2023-02-16T09:26:37Z</time>
      </trkpt>
      <trkpt lat="44.7958" lon="6.76644">
        <ele>2094.37</ele>
        <time>2023-02-16T09:27:07Z</time>
      </trkpt>
      <trkpt lat="44.79576" lon="6.76664">
        <ele>2097.25</ele>
        <time>2023-02-16T09:27:38Z</time>
      </trkpt>
      <trkpt lat="44.79567" lon="6.76676">
        <ele>2100.62</ele>
        <time>2023-02-16T09:28:07Z</time>
      </trkpt>
      <trkpt lat="44.79558" lon="6.76673">
        <ele>2102.54</ele>
        <time>2023-02-16T09:28:19Z</time>
      </trkpt>
      <trkpt lat="44.79547" lon="6.76684">
        <ele>2105.91</ele>
        <time>2023-02-16T09:28:51Z</time>
      </trkpt>
      <trkpt lat="44.79539" lon="6.76697">
        <ele>2109.27</ele>
        <time>2023-02-16T09:29:18Z</time>
      </trkpt>
      <trkpt lat="44.79527" lon="6.76704">
        <ele>2112.63</ele>
        <time>2023-02-16T09:29:49Z</time>
      </trkpt>
      <trkpt lat="44.79518" lon="6.76718">
        <ele>2116.96</ele>
        <time>2023-02-16T09:30:26Z</time>
      </trkpt>
      <trkpt lat="44.79512" lon="6.76731">
        <ele>2120.81</ele>
        <time>2023-02-16T09:30:56Z</time>
      </trkpt>
      <trkpt lat="44.79513" lon="6.7675">
        <ele>2124.17</ele>
        <time>2023-02-16T09:31:24Z</time>
      </trkpt>
      <trkpt lat="44.79521" lon="6.76765">
        <ele>2127.53</ele>
        <time>2023-02-16T09:31:51Z</time>
      </trkpt>
      <trkpt lat="44.79526" lon="6.7678">
        <ele>2130.42</ele>
        <time>2023-02-16T09:32:20Z</time>
      </trkpt>
      <trkpt lat="44.7952" lon="6.76797">
        <ele>2136.67</ele>
        <time>2023-02-16T09:33:11Z</time>
      </trkpt>
      <trkpt lat="44.79514" lon="6.76814">
        <ele>2140.51</ele>
        <time>2023-02-16T09:33:43Z</time>
      </trkpt>
      <trkpt lat="44.79506" lon="6.76828">
        <ele>2143.88</ele>
        <time>2023-02-16T09:34:12Z</time>
      </trkpt>
      <trkpt lat="44.79499" lon="6.76838">
        <ele>2146.76</ele>
        <time>2023-02-16T09:34:36Z</time>
      </trkpt>
      <trkpt lat="44.7949" lon="6.76849">
        <ele>2149.65</ele>
        <time>2023-02-16T09:35:07Z</time>
      </trkpt>
      <trkpt lat="44.7948" lon="6.76859">
        <ele>2153.01</ele>
        <time>2023-02-16T09:35:44Z</time>
      </trkpt>
      <trkpt lat="44.79489" lon="6.76867">
        <ele>2155.41</ele>
        <time>2023-02-16T09:36:13Z</time>
      </trkpt>
      <trkpt lat="44.795" lon="6.76874">
        <ele>2159.26</ele>
        <time>2023-02-16T09:36:44Z</time>
      </trkpt>
      <trkpt lat="44.79497" lon="6.76883">
        <ele>2162.14</ele>
        <time>2023-02-16T09:37:14Z</time>
      </trkpt>
      <trkpt lat="44.79487" lon="6.76893">
        <ele>2164.55</ele>
        <time>2023-02-16T09:37:40Z</time>
      </trkpt>
      <trkpt lat="44.79478" lon="6.76904">
        <ele>2168.39</ele>
        <time>2023-02-16T09:38:12Z</time>
      </trkpt>
      <trkpt lat="44.79481" lon="6.76916">
        <ele>2170.31</ele>
        <time>2023-02-16T09:38:34Z</time>
      </trkpt>
      <trkpt lat="44.79492" lon="6.76921">
        <ele>2173.2</ele>
        <time>2023-02-16T09:39:04Z</time>
      </trkpt>
      <trkpt lat="44.79502" lon="6.76926">
        <ele>2175.6</ele>
        <time>2023-02-16T09:39:31Z</time>
      </trkpt>
      <trkpt lat="44.79499" lon="6.76936">
        <ele>2177.52</ele>
        <time>2023-02-16T09:39:57Z</time>
      </trkpt>
      <trkpt lat="44.79501" lon="6.76949">
        <ele>2180.89</ele>
        <time>2023-02-16T09:40:24Z</time>
      </trkpt>
      <trkpt lat="44.79508" lon="6.76958">
        <ele>2182.81</ele>
        <time>2023-02-16T09:40:40Z</time>
      </trkpt>
      <trkpt lat="44.79517" lon="6.76963">
        <ele>2185.21</ele>
        <time>2023-02-16T09:41:05Z</time>
      </trkpt>
      <trkpt lat="44.79527" lon="6.76973">
        <ele>2187.62</ele>
        <time>2023-02-16T09:41:32Z</time>
      </trkpt>
      <trkpt lat="44.79537" lon="6.76984">
        <ele>2190.02</ele>
        <time>2023-02-16T09:42:01Z</time>
      </trkpt>
      <trkpt lat="44.79539" lon="6.76995">
        <ele>2193.87</ele>
        <time>2023-02-16T09:42:29Z</time>
      </trkpt>
      <trkpt lat="44.79525" lon="6.76999">
        <ele>2196.27</ele>
        <time>2023-02-16T09:42:59Z</time>
      </trkpt>
      <trkpt lat="44.79517" lon="6.7701">
        <ele>2199.15</ele>
        <time>2023-02-16T09:43:28Z</time>
      </trkpt>
      <trkpt lat="44.79523" lon="6.77019">
        <ele>2199.63</ele>
        <time>2023-02-16T09:43:44Z</time>
      </trkpt>
      <trkpt lat="44.79536" lon="6.77023">
        <ele>2201.56</ele>
        <time>2023-02-16T09:44:12Z</time>
      </trkpt>
      <trkpt lat="44.79545" lon="6.77028">
        <ele>2203</ele>
        <time>2023-02-16T09:44:37Z</time>
      </trkpt>
      <trkpt lat="44.79551" lon="6.77042">
        <ele>2205.4</ele>
        <time>2023-02-16T09:45:00Z</time>
      </trkpt>
      <trkpt lat="44.7954" lon="6.77045">
        <ele>2207.32</ele>
        <time>2023-02-16T09:45:26Z</time>
      </trkpt>
      <trkpt lat="44.79546" lon="6.77059">
        <ele>2211.17</ele>
        <time>2023-02-16T09:46:04Z</time>
      </trkpt>
      <trkpt lat="44.79552" lon="6.77076">
        <ele>2214.53</ele>
        <time>2023-02-16T09:46:33Z</time>
      </trkpt>
      <trkpt lat="44.79558" lon="6.77086">
        <ele>2215.98</ele>
        <time>2023-02-16T09:46:49Z</time>
      </trkpt>
      <trkpt lat="44.79566" lon="6.77099">
        <ele>2219.34</ele>
        <time>2023-02-16T09:47:16Z</time>
      </trkpt>
      <trkpt lat="44.79573" lon="6.77108">
        <ele>2220.3</ele>
        <time>2023-02-16T09:47:30Z</time>
      </trkpt>
      <trkpt lat="44.79584" lon="6.77115">
        <ele>2222.22</ele>
        <time>2023-02-16T09:47:58Z</time>
      </trkpt>
      <trkpt lat="44.79595" lon="6.77128">
        <ele>2225.59</ele>
        <time>2023-02-16T09:48:28Z</time>
      </trkpt>
      <trkpt lat="44.79604" lon="6.77135">
        <ele>2227.99</ele>
        <time>2023-02-16T09:48:53Z</time>
      </trkpt>
      <trkpt lat="44.79615" lon="6.77135">
        <ele>2230.4</ele>
        <time>2023-02-16T09:49:34Z</time>
      </trkpt>
      <trkpt lat="44.79625" lon="6.77137">
        <ele>2231.36</ele>
        <time>2023-02-16T09:50:00Z</time>
      </trkpt>
      <trkpt lat="44.79634" lon="6.77138">
        <ele>2233.28</ele>
        <time>2023-02-16T09:50:54Z</time>
      </trkpt>
      <trkpt lat="44.79626" lon="6.77147">
        <ele>2236.64</ele>
        <time>2023-02-16T09:51:36Z</time>
      </trkpt>
      <trkpt lat="44.79633" lon="6.77165">
        <ele>2241.45</ele>
        <time>2023-02-16T09:52:17Z</time>
      </trkpt>
      <trkpt lat="44.7963" lon="6.77179">
        <ele>2245.78</ele>
        <time>2023-02-16T09:52:55Z</time>
      </trkpt>
      <trkpt lat="44.79621" lon="6.77185">
        <ele>2248.18</ele>
        <time>2023-02-16T09:53:23Z</time>
      </trkpt>
      <trkpt lat="44.79618" lon="6.772">
        <ele>2250.58</ele>
        <time>2023-02-16T09:54:02Z</time>
      </trkpt>
      <trkpt lat="44.79626" lon="6.77208">
        <ele>2252.99</ele>
        <time>2023-02-16T09:54:29Z</time>
      </trkpt>
      <trkpt lat="44.79637" lon="6.77215">
        <ele>2256.83</ele>
        <time>2023-02-16T09:55:09Z</time>
      </trkpt>
      <trkpt lat="44.79639" lon="6.77229">
        <ele>2261.16</ele>
        <time>2023-02-16T09:55:45Z</time>
      </trkpt>
      <trkpt lat="44.79632" lon="6.77237">
        <ele>2263.08</ele>
        <time>2023-02-16T09:56:14Z</time>
      </trkpt>
      <trkpt lat="44.79627" lon="6.77246">
        <ele>2265.96</ele>
        <time>2023-02-16T09:56:39Z</time>
      </trkpt>
      <trkpt lat="44.79641" lon="6.77258">
        <ele>2270.29</ele>
        <time>2023-02-16T09:57:25Z</time>
      </trkpt>
      <trkpt lat="44.79651" lon="6.77264">
        <ele>2272.69</ele>
        <time>2023-02-16T09:58:04Z</time>
      </trkpt>
      <trkpt lat="44.79641" lon="6.77267">
        <ele>2274.62</ele>
        <time>2023-02-16T09:58:48Z</time>
      </trkpt>
      <trkpt lat="44.79642" lon="6.77273">
        <ele>2277.02</ele>
        <time>2023-02-16T09:59:31Z</time>
      </trkpt>
      <trkpt lat="44.7964" lon="6.77282">
        <ele>2280.38</ele>
        <time>2023-02-16T10:00:08Z</time>
      </trkpt>
      <trkpt lat="44.79633" lon="6.7729">
        <ele>2283.27</ele>
        <time>2023-02-16T10:00:37Z</time>
      </trkpt>
      <trkpt lat="44.79629" lon="6.77306">
        <ele>2285.67</ele>
        <time>2023-02-16T10:01:09Z</time>
      </trkpt>
      <trkpt lat="44.79634" lon="6.77317">
        <ele>2289.52</ele>
        <time>2023-02-16T10:01:53Z</time>
      </trkpt>
      <trkpt lat="44.79644" lon="6.77315">
        <ele>2291.92</ele>
        <time>2023-02-16T10:02:22Z</time>
      </trkpt>
      <trkpt lat="44.7965" lon="6.77326">
        <ele>2295.28</ele>
        <time>2023-02-16T10:02:59Z</time>
      </trkpt>
      <trkpt lat="44.7965" lon="6.77329">
        <ele>2298.17</ele>
        <time>2023-02-16T10:04:02Z</time>
      </trkpt>
      <trkpt lat="44.79656" lon="6.77339">
        <ele>2301.05</ele>
        <time>2023-02-16T10:04:59Z</time>
      </trkpt>
      <trkpt lat="44.79652" lon="6.77343">
        <ele>2303.94</ele>
        <time>2023-02-16T10:05:51Z</time>
      </trkpt>
      <trkpt lat="44.79641" lon="6.77354">
        <ele>2306.82</ele>
        <time>2023-02-16T10:06:44Z</time>
      </trkpt>
      <trkpt lat="44.79648" lon="6.77359">
        <ele>2309.7</ele>
        <time>2023-02-16T10:07:24Z</time>
      </trkpt>
      <trkpt lat="44.79648" lon="6.7736">
        <ele>2309.7</ele>
        <time>2023-02-16T10:10:10Z</time>
      </trkpt>
      <trkpt lat="44.79648" lon="6.77363">
        <ele>2310.19</ele>
        <time>2023-02-16T10:12:17Z</time>
      </trkpt>
      <trkpt lat="44.79652" lon="6.77375">
        <ele>2313.55</ele>
        <time>2023-02-16T10:13:35Z</time>
      </trkpt>
      <trkpt lat="44.79646" lon="6.77381">
        <ele>2316.43</ele>
        <time>2023-02-16T10:14:03Z</time>
      </trkpt>
      <trkpt lat="44.79637" lon="6.77386">
        <ele>2319.32</ele>
        <time>2023-02-16T10:14:30Z</time>
      </trkpt>
      <trkpt lat="44.79624" lon="6.77387">
        <ele>2321.24</ele>
        <time>2023-02-16T10:14:57Z</time>
      </trkpt>
      <trkpt lat="44.79616" lon="6.77391">
        <ele>2324.12</ele>
        <time>2023-02-16T10:15:36Z</time>
      </trkpt>
      <trkpt lat="44.79622" lon="6.77404">
        <ele>2328.93</ele>
        <time>2023-02-16T10:16:22Z</time>
      </trkpt>
      <trkpt lat="44.79613" lon="6.77415">
        <ele>2334.22</ele>
        <time>2023-02-16T10:17:15Z</time>
      </trkpt>
      <trkpt lat="44.79607" lon="6.77425">
        <ele>2337.1</ele>
        <time>2023-02-16T10:17:46Z</time>
      </trkpt>
      <trkpt lat="44.79617" lon="6.77434">
        <ele>2340.95</ele>
        <time>2023-02-16T10:18:13Z</time>
      </trkpt>
      <trkpt lat="44.79617" lon="6.77445">
        <ele>2343.83</ele>
        <time>2023-02-16T10:18:43Z</time>
      </trkpt>
      <trkpt lat="44.79609" lon="6.77456">
        <ele>2348.16</ele>
        <time>2023-02-16T10:19:28Z</time>
      </trkpt>
      <trkpt lat="44.79617" lon="6.77462">
        <ele>2351.04</ele>
        <time>2023-02-16T10:19:51Z</time>
      </trkpt>
      <trkpt lat="44.79625" lon="6.77472">
        <ele>2353.93</ele>
        <time>2023-02-16T10:20:21Z</time>
      </trkpt>
      <trkpt lat="44.79612" lon="6.77481">
        <ele>2357.29</ele>
        <time>2023-02-16T10:20:59Z</time>
      </trkpt>
      <trkpt lat="44.796" lon="6.77492">
        <ele>2360.65</ele>
        <time>2023-02-16T10:21:41Z</time>
      </trkpt>
      <trkpt lat="44.79606" lon="6.77506">
        <ele>2364.02</ele>
        <time>2023-02-16T10:22:16Z</time>
      </trkpt>
      <trkpt lat="44.79603" lon="6.77514">
        <ele>2367.38</ele>
        <time>2023-02-16T10:23:05Z</time>
      </trkpt>
      <trkpt lat="44.79599" lon="6.7752">
        <ele>2369.79</ele>
        <time>2023-02-16T10:24:25Z</time>
      </trkpt>
      <trkpt lat="44.79602" lon="6.77527">
        <ele>2373.15</ele>
        <time>2023-02-16T10:25:06Z</time>
      </trkpt>
      <trkpt lat="44.7961" lon="6.77532">
        <ele>2376.52</ele>
        <time>2023-02-16T10:25:44Z</time>
      </trkpt>
      <trkpt lat="44.796" lon="6.77539">
        <ele>2378.44</ele>
        <time>2023-02-16T10:26:11Z</time>
      </trkpt>
      <trkpt lat="44.79589" lon="6.77542">
        <ele>2379.88</ele>
        <time>2023-02-16T10:26:36Z</time>
      </trkpt>
      <trkpt lat="44.79579" lon="6.77545">
        <ele>2382.28</ele>
        <time>2023-02-16T10:27:02Z</time>
      </trkpt>
      <trkpt lat="44.7957" lon="6.77553">
        <ele>2385.65</ele>
        <time>2023-02-16T10:27:28Z</time>
      </trkpt>
      <trkpt lat="44.79562" lon="6.7756">
        <ele>2388.53</ele>
        <time>2023-02-16T10:27:55Z</time>
      </trkpt>
      <trkpt lat="44.79568" lon="6.77573">
        <ele>2392.38</ele>
        <time>2023-02-16T10:28:33Z</time>
      </trkpt>
      <trkpt lat="44.79576" lon="6.7758">
        <ele>2394.78</ele>
        <time>2023-02-16T10:29:11Z</time>
      </trkpt>
      <trkpt lat="44.79571" lon="6.7759">
        <ele>2397.67</ele>
        <time>2023-02-16T10:29:55Z</time>
      </trkpt>
      <trkpt lat="44.79566" lon="6.77601">
        <ele>2401.03</ele>
        <time>2023-02-16T10:30:21Z</time>
      </trkpt>
      <trkpt lat="44.79576" lon="6.77611">
        <ele>2403.91</ele>
        <time>2023-02-16T10:30:58Z</time>
      </trkpt>
      <trkpt lat="44.79576" lon="6.77625">
        <ele>2408.24</ele>
        <time>2023-02-16T10:31:31Z</time>
      </trkpt>
      <trkpt lat="44.79574" lon="6.7764">
        <ele>2411.6</ele>
        <time>2023-02-16T10:32:07Z</time>
      </trkpt>
      <trkpt lat="44.79569" lon="6.77649">
        <ele>2414.49</ele>
        <time>2023-02-16T10:32:42Z</time>
      </trkpt>
      <trkpt lat="44.7956" lon="6.7765">
        <ele>2416.89</ele>
        <time>2023-02-16T10:33:09Z</time>
      </trkpt>
      <trkpt lat="44.79551" lon="6.77651">
        <ele>2418.81</ele>
        <time>2023-02-16T10:33:36Z</time>
      </trkpt>
      <trkpt lat="44.79548" lon="6.77652">
        <ele>2422.18</ele>
        <time>2023-02-16T10:34:29Z</time>
      </trkpt>
      <trkpt lat="44.79537" lon="6.77657">
        <ele>2424.1</ele>
        <time>2023-02-16T10:35:17Z</time>
      </trkpt>
      <trkpt lat="44.79537" lon="6.77664">
        <ele>2428.43</ele>
        <time>2023-02-16T10:36:26Z</time>
      </trkpt>
      <trkpt lat="44.79527" lon="6.77669">
        <ele>2432.27</ele>
        <time>2023-02-16T10:37:20Z</time>
      </trkpt>
      <trkpt lat="44.79516" lon="6.77676">
        <ele>2435.64</ele>
        <time>2023-02-16T10:37:58Z</time>
      </trkpt>
      <trkpt lat="44.79506" lon="6.77681">
        <ele>2439.96</ele>
        <time>2023-02-16T10:38:59Z</time>
      </trkpt>
      <trkpt lat="44.79493" lon="6.77685">
        <ele>2443.33</ele>
        <time>2023-02-16T10:39:36Z</time>
      </trkpt>
      <trkpt lat="44.79482" lon="6.77685">
        <ele>2445.73</ele>
        <time>2023-02-16T10:40:21Z</time>
      </trkpt>
      <trkpt lat="44.7948" lon="6.77691">
        <ele>2448.13</ele>
        <time>2023-02-16T10:41:08Z</time>
      </trkpt>
      <trkpt lat="44.79487" lon="6.77699">
        <ele>2450.54</ele>
        <time>2023-02-16T10:41:52Z</time>
      </trkpt>
      <trkpt lat="44.79474" lon="6.77702">
        <ele>2452.46</ele>
        <time>2023-02-16T10:42:18Z</time>
      </trkpt>
      <trkpt lat="44.79463" lon="6.77704">
        <ele>2454.86</ele>
        <time>2023-02-16T10:42:57Z</time>
      </trkpt>
      <trkpt lat="44.79473" lon="6.77712">
        <ele>2458.71</ele>
        <time>2023-02-16T10:43:41Z</time>
      </trkpt>
      <trkpt lat="44.79485" lon="6.77718">
        <ele>2459.67</ele>
        <time>2023-02-16T10:44:08Z</time>
      </trkpt>
      <trkpt lat="44.79493" lon="6.77729">
        <ele>2462.07</ele>
        <time>2023-02-16T10:44:34Z</time>
      </trkpt>
      <trkpt lat="44.795" lon="6.77737">
        <ele>2464.48</ele>
        <time>2023-02-16T10:45:00Z</time>
      </trkpt>
      <trkpt lat="44.79512" lon="6.77747">
        <ele>2464.96</ele>
        <time>2023-02-16T10:45:16Z</time>
      </trkpt>
      <trkpt lat="44.79521" lon="6.77759">
        <ele>2464.48</ele>
        <time>2023-02-16T10:45:32Z</time>
      </trkpt>
      <trkpt lat="44.7953" lon="6.7777">
        <ele>2464.48</ele>
        <time>2023-02-16T10:45:46Z</time>
      </trkpt>
      <trkpt lat="44.7954" lon="6.77782">
        <ele>2463.04</ele>
        <time>2023-02-16T10:46:03Z</time>
      </trkpt>
      <trkpt lat="44.79548" lon="6.77795">
        <ele>2462.55</ele>
        <time>2023-02-16T10:46:20Z</time>
      </trkpt>
      <trkpt lat="44.79554" lon="6.77808">
        <ele>2464</ele>
        <time>2023-02-16T10:46:38Z</time>
      </trkpt>
      <trkpt lat="44.79564" lon="6.77817">
        <ele>2466.4</ele>
        <time>2023-02-16T10:47:07Z</time>
      </trkpt>
      <trkpt lat="44.79576" lon="6.7782">
        <ele>2469.76</ele>
        <time>2023-02-16T10:47:35Z</time>
      </trkpt>
      <trkpt lat="44.79588" lon="6.77833">
        <ele>2471.69</ele>
        <time>2023-02-16T10:48:14Z</time>
      </trkpt>
      <trkpt lat="44.79595" lon="6.77841">
        <ele>2472.65</ele>
        <time>2023-02-16T10:48:28Z</time>
      </trkpt>
      <trkpt lat="44.79603" lon="6.77849">
        <ele>2474.09</ele>
        <time>2023-02-16T10:48:43Z</time>
      </trkpt>
      <trkpt lat="44.79616" lon="6.77862">
        <ele>2475.53</ele>
        <time>2023-02-16T10:49:12Z</time>
      </trkpt>
      <trkpt lat="44.79627" lon="6.77875">
        <ele>2476.01</ele>
        <time>2023-02-16T10:49:38Z</time>
      </trkpt>
      <trkpt lat="44.79639" lon="6.77887">
        <ele>2478.42</ele>
        <time>2023-02-16T10:50:03Z</time>
      </trkpt>
      <trkpt lat="44.79654" lon="6.77899">
        <ele>2481.3</ele>
        <time>2023-02-16T10:50:34Z</time>
      </trkpt>
      <trkpt lat="44.79666" lon="6.77912">
        <ele>2484.18</ele>
        <time>2023-02-16T10:51:01Z</time>
      </trkpt>
      <trkpt lat="44.79677" lon="6.77933">
        <ele>2487.07</ele>
        <time>2023-02-16T10:51:29Z</time>
      </trkpt>
      <trkpt lat="44.79684" lon="6.77943">
        <ele>2488.03</ele>
        <time>2023-02-16T10:51:43Z</time>
      </trkpt>
      <trkpt lat="44.79692" lon="6.7795">
        <ele>2488.99</ele>
        <time>2023-02-16T10:51:58Z</time>
      </trkpt>
      <trkpt lat="44.79706" lon="6.7796">
        <ele>2492.36</ele>
        <time>2023-02-16T10:52:26Z</time>
      </trkpt>
      <trkpt lat="44.79718" lon="6.77974">
        <ele>2494.28</ele>
        <time>2023-02-16T10:52:52Z</time>
      </trkpt>
      <trkpt lat="44.7973" lon="6.77992">
        <ele>2495.24</ele>
        <time>2023-02-16T10:53:21Z</time>
      </trkpt>
      <trkpt lat="44.79738" lon="6.78001">
        <ele>2496.68</ele>
        <time>2023-02-16T10:53:47Z</time>
      </trkpt>
      <trkpt lat="44.79746" lon="6.78009">
        <ele>2497.16</ele>
        <time>2023-02-16T10:54:04Z</time>
      </trkpt>
      <trkpt lat="44.79758" lon="6.7802">
        <ele>2498.12</ele>
        <time>2023-02-16T10:54:32Z</time>
      </trkpt>
      <trkpt lat="44.79769" lon="6.78029">
        <ele>2499.57</ele>
        <time>2023-02-16T10:54:48Z</time>
      </trkpt>
      <trkpt lat="44.79777" lon="6.78034">
        <ele>2500.53</ele>
        <time>2023-02-16T10:55:01Z</time>
      </trkpt>
      <trkpt lat="44.79787" lon="6.78041">
        <ele>2501.49</ele>
        <time>2023-02-16T10:55:16Z</time>
      </trkpt>
      <trkpt lat="44.79796" lon="6.78046">
        <ele>2502.45</ele>
        <time>2023-02-16T10:55:31Z</time>
      </trkpt>
      <trkpt lat="44.79806" lon="6.78052">
        <ele>2503.41</ele>
        <time>2023-02-16T10:56:00Z</time>
      </trkpt>
      <trkpt lat="44.79823" lon="6.78055">
        <ele>2504.85</ele>
        <time>2023-02-16T10:56:25Z</time>
      </trkpt>
      <trkpt lat="44.79838" lon="6.7806">
        <ele>2507.26</ele>
        <time>2023-02-16T10:56:52Z</time>
      </trkpt>
      <trkpt lat="44.79855" lon="6.78066">
        <ele>2508.7</ele>
        <time>2023-02-16T10:57:21Z</time>
      </trkpt>
      <trkpt lat="44.79873" lon="6.78071">
        <ele>2511.1</ele>
        <time>2023-02-16T10:57:50Z</time>
      </trkpt>
      <trkpt lat="44.79882" lon="6.78074">
        <ele>2512.54</ele>
        <time>2023-02-16T10:58:08Z</time>
      </trkpt>
      <trkpt lat="44.79896" lon="6.78077">
        <ele>2516.39</ele>
        <time>2023-02-16T10:58:33Z</time>
      </trkpt>
      <trkpt lat="44.79906" lon="6.78081">
        <ele>2518.31</ele>
        <time>2023-02-16T10:58:50Z</time>
      </trkpt>
      <trkpt lat="44.79922" lon="6.78089">
        <ele>2520.23</ele>
        <time>2023-02-16T10:59:24Z</time>
      </trkpt>
      <trkpt lat="44.79931" lon="6.78093">
        <ele>2522.64</ele>
        <time>2023-02-16T10:59:41Z</time>
      </trkpt>
      <trkpt lat="44.79947" lon="6.78099">
        <ele>2525.04</ele>
        <time>2023-02-16T11:00:08Z</time>
      </trkpt>
      <trkpt lat="44.79954" lon="6.78106">
        <ele>2527.92</ele>
        <time>2023-02-16T11:00:34Z</time>
      </trkpt>
      <trkpt lat="44.79958" lon="6.78105">
        <ele>2528.4</ele>
        <time>2023-02-16T11:02:02Z</time>
      </trkpt>
      <trkpt lat="44.79962" lon="6.7811">
        <ele>2530.33</ele>
        <time>2023-02-16T11:03:48Z</time>
      </trkpt>
      <trkpt lat="44.79975" lon="6.78121">
        <ele>2532.25</ele>
        <time>2023-02-16T11:04:16Z</time>
      </trkpt>
      <trkpt lat="44.79986" lon="6.78133">
        <ele>2535.13</ele>
        <time>2023-02-16T11:04:47Z</time>
      </trkpt>
      <trkpt lat="44.79995" lon="6.78142">
        <ele>2538.02</ele>
        <time>2023-02-16T11:05:17Z</time>
      </trkpt>
      <trkpt lat="44.80004" lon="6.78147">
        <ele>2539.46</ele>
        <time>2023-02-16T11:05:36Z</time>
      </trkpt>
      <trkpt lat="44.80017" lon="6.78152">
        <ele>2543.31</ele>
        <time>2023-02-16T11:06:13Z</time>
      </trkpt>
      <trkpt lat="44.80027" lon="6.78157">
        <ele>2547.63</ele>
        <time>2023-02-16T11:06:50Z</time>
      </trkpt>
      <trkpt lat="44.80028" lon="6.78173">
        <ele>2551</ele>
        <time>2023-02-16T11:07:26Z</time>
      </trkpt>
      <trkpt lat="44.8002" lon="6.78187">
        <ele>2555.32</ele>
        <time>2023-02-16T11:08:03Z</time>
      </trkpt>
      <trkpt lat="44.8001" lon="6.78198">
        <ele>2558.69</ele>
        <time>2023-02-16T11:08:39Z</time>
      </trkpt>
      <trkpt lat="44.8002" lon="6.78203">
        <ele>2562.05</ele>
        <time>2023-02-16T11:09:16Z</time>
      </trkpt>
      <trkpt lat="44.80033" lon="6.78206">
        <ele>2565.9</ele>
        <time>2023-02-16T11:09:56Z</time>
      </trkpt>
      <trkpt lat="44.8005" lon="6.78211">
        <ele>2570.7</ele>
        <time>2023-02-16T11:10:34Z</time>
      </trkpt>
      <trkpt lat="44.80061" lon="6.78217">
        <ele>2575.03</ele>
        <time>2023-02-16T11:11:03Z</time>
      </trkpt>
      <trkpt lat="44.80054" lon="6.78228">
        <ele>2577.91</ele>
        <time>2023-02-16T11:11:29Z</time>
      </trkpt>
      <trkpt lat="44.80049" lon="6.78241">
        <ele>2581.28</ele>
        <time>2023-02-16T11:11:54Z</time>
      </trkpt>
      <trkpt lat="44.8005" lon="6.78254">
        <ele>2584.64</ele>
        <time>2023-02-16T11:12:32Z</time>
      </trkpt>
      <trkpt lat="44.80053" lon="6.78254">
        <ele>2585.12</ele>
        <time>2023-02-16T11:15:10Z</time>
      </trkpt>
      <trkpt lat="44.8006" lon="6.78261">
        <ele>2586.56</ele>
        <time>2023-02-16T11:15:33Z</time>
      </trkpt>
      <trkpt lat="44.80075" lon="6.78268">
        <ele>2588.49</ele>
        <time>2023-02-16T11:16:02Z</time>
      </trkpt>
      <trkpt lat="44.80088" lon="6.78281">
        <ele>2590.89</ele>
        <time>2023-02-16T11:16:35Z</time>
      </trkpt>
      <trkpt lat="44.80096" lon="6.78289">
        <ele>2593.77</ele>
        <time>2023-02-16T11:17:00Z</time>
      </trkpt>
      <trkpt lat="44.80102" lon="6.78298">
        <ele>2596.66</ele>
        <time>2023-02-16T11:17:24Z</time>
      </trkpt>
      <trkpt lat="44.8011" lon="6.78313">
        <ele>2600.5</ele>
        <time>2023-02-16T11:18:02Z</time>
      </trkpt>
      <trkpt lat="44.8012" lon="6.78328">
        <ele>2605.31</ele>
        <time>2023-02-16T11:18:43Z</time>
      </trkpt>
      <trkpt lat="44.80127" lon="6.78336">
        <ele>2607.23</ele>
        <time>2023-02-16T11:19:08Z</time>
      </trkpt>
      <trkpt lat="44.80132" lon="6.7835">
        <ele>2611.56</ele>
        <time>2023-02-16T11:19:43Z</time>
      </trkpt>
      <trkpt lat="44.80132" lon="6.78367">
        <ele>2615.4</ele>
        <time>2023-02-16T11:20:19Z</time>
      </trkpt>
      <trkpt lat="44.80139" lon="6.78375">
        <ele>2619.25</ele>
        <time>2023-02-16T11:20:51Z</time>
      </trkpt>
      <trkpt lat="44.8015" lon="6.78378">
        <ele>2623.09</ele>
        <time>2023-02-16T11:21:26Z</time>
      </trkpt>
      <trkpt lat="44.80147" lon="6.78392">
        <ele>2626.46</ele>
        <time>2023-02-16T11:21:57Z</time>
      </trkpt>
      <trkpt lat="44.8015" lon="6.78403">
        <ele>2629.82</ele>
        <time>2023-02-16T11:22:28Z</time>
      </trkpt>
      <trkpt lat="44.80163" lon="6.784">
        <ele>2633.19</ele>
        <time>2023-02-16T11:23:05Z</time>
      </trkpt>
      <trkpt lat="44.80172" lon="6.78397">
        <ele>2636.55</ele>
        <time>2023-02-16T11:23:32Z</time>
      </trkpt>
      <trkpt lat="44.80172" lon="6.7841">
        <ele>2638.96</ele>
        <time>2023-02-16T11:23:53Z</time>
      </trkpt>
      <trkpt lat="44.80171" lon="6.78423">
        <ele>2640.88</ele>
        <time>2023-02-16T11:24:16Z</time>
      </trkpt>
      <trkpt lat="44.80172" lon="6.78427">
        <ele>2642.8</ele>
        <time>2023-02-16T11:26:48Z</time>
      </trkpt>
      <trkpt lat="44.8018" lon="6.78419">
        <ele>2644.72</ele>
        <time>2023-02-16T11:27:16Z</time>
      </trkpt>
      <trkpt lat="44.80191" lon="6.78402">
        <ele>2647.13</ele>
        <time>2023-02-16T11:27:45Z</time>
      </trkpt>
      <trkpt lat="44.80197" lon="6.78389">
        <ele>2650.49</ele>
        <time>2023-02-16T11:28:16Z</time>
      </trkpt>
      <trkpt lat="44.80201" lon="6.78374">
        <ele>2653.86</ele>
        <time>2023-02-16T11:28:59Z</time>
      </trkpt>
      <trkpt lat="44.80205" lon="6.78357">
        <ele>2658.66</ele>
        <time>2023-02-16T11:29:37Z</time>
      </trkpt>
      <trkpt lat="44.80209" lon="6.78345">
        <ele>2662.51</ele>
        <time>2023-02-16T11:30:21Z</time>
      </trkpt>
      <trkpt lat="44.80213" lon="6.7833">
        <ele>2667.31</ele>
        <time>2023-02-16T11:31:11Z</time>
      </trkpt>
      <trkpt lat="44.80216" lon="6.78321">
        <ele>2669.72</ele>
        <time>2023-02-16T11:32:11Z</time>
      </trkpt>
      <trkpt lat="44.80216" lon="6.78307">
        <ele>2671.64</ele>
        <time>2023-02-16T11:32:37Z</time>
      </trkpt>
      <trkpt lat="44.80216" lon="6.7829">
        <ele>2675.01</ele>
        <time>2023-02-16T11:33:21Z</time>
      </trkpt>
      <trkpt lat="44.80218" lon="6.78274">
        <ele>2677.41</ele>
        <time>2023-02-16T11:33:57Z</time>
      </trkpt>
      <trkpt lat="44.80218" lon="6.7826">
        <ele>2680.77</ele>
        <time>2023-02-16T11:34:31Z</time>
      </trkpt>
      <trkpt lat="44.80218" lon="6.78245">
        <ele>2683.18</ele>
        <time>2023-02-16T11:35:06Z</time>
      </trkpt>
      <trkpt lat="44.80222" lon="6.78243">
        <ele>2685.58</ele>
        <time>2023-02-16T11:36:24Z</time>
      </trkpt>
      <trkpt lat="44.80232" lon="6.78256">
        <ele>2688.46</ele>
        <time>2023-02-16T11:36:47Z</time>
      </trkpt>
      <trkpt lat="44.80237" lon="6.78267">
        <ele>2691.35</ele>
        <time>2023-02-16T11:37:30Z</time>
      </trkpt>
      <trkpt lat="44.80239" lon="6.78255">
        <ele>2694.71</ele>
        <time>2023-02-16T11:38:08Z</time>
      </trkpt>
      <trkpt lat="44.80238" lon="6.78235">
        <ele>2697.6</ele>
        <time>2023-02-16T11:38:46Z</time>
      </trkpt>
      <trkpt lat="44.80239" lon="6.78215">
        <ele>2700.96</ele>
        <time>2023-02-16T11:39:20Z</time>
      </trkpt>
      <trkpt lat="44.80242" lon="6.78197">
        <ele>2702.4</ele>
        <time>2023-02-16T11:39:50Z</time>
      </trkpt>
      <trkpt lat="44.80243" lon="6.78183">
        <ele>2703.36</ele>
        <time>2023-02-16T11:40:39Z</time>
      </trkpt>
      <trkpt lat="44.80237" lon="6.78162">
        <ele>2703.36</ele>
        <time>2023-02-16T11:41:35Z</time>
      </trkpt>
      <trkpt lat="44.80235" lon="6.78155">
        <ele>2702.88</ele>
        <time>2023-02-16T11:42:48Z</time>
      </trkpt>
      <trkpt lat="44.80237" lon="6.78153">
        <ele>2704.33</ele>
        <time>2023-02-16T11:45:45Z</time>
      </trkpt>
      <trkpt lat="44.80238" lon="6.78156">
        <ele>2702.4</ele>
        <time>2023-02-16T11:47:13Z</time>
      </trkpt>
      <trkpt lat="44.80239" lon="6.78155">
        <ele>2702.4</ele>
        <time>2023-02-16T11:52:10Z</time>
      </trkpt>
      <trkpt lat="44.80239" lon="6.78154">
        <ele>2691.83</ele>
        <time>2023-02-16T11:54:42Z</time>
      </trkpt>
      <trkpt lat="44.80239" lon="6.78153">
        <ele>2702.4</ele>
        <time>2023-02-16T11:59:31Z</time>
      </trkpt>
      <trkpt lat="44.80239" lon="6.78153">
        <ele>2703.36</ele>
        <time>2023-02-16T12:08:03Z</time>
      </trkpt>
      <trkpt lat="44.80239" lon="6.78155">
        <ele>2687.98</ele>
        <time>2023-02-16T12:15:19Z</time>
      </trkpt>
      <trkpt lat="44.80238" lon="6.78154">
        <ele>2702.88</ele>
        <time>2023-02-16T12:20:52Z</time>
      </trkpt>
      <trkpt lat="44.8024" lon="6.78155">
        <ele>2704.33</ele>
        <time>2023-02-16T12:25:02Z</time>
      </trkpt>
      <trkpt lat="44.80243" lon="6.7818">
        <ele>2704.33</ele>
        <time>2023-02-16T12:26:05Z</time>
      </trkpt>
      <trkpt lat="44.80241" lon="6.78223">
        <ele>2701.44</ele>
        <time>2023-02-16T12:26:25Z</time>
      </trkpt>
      <trkpt lat="44.80234" lon="6.78256">
        <ele>2693.27</ele>
        <time>2023-02-16T12:27:08Z</time>
      </trkpt>
      <trkpt lat="44.80231" lon="6.78269">
        <ele>2688.94</ele>
        <time>2023-02-16T12:27:15Z</time>
      </trkpt>
      <trkpt lat="44.80222" lon="6.78274">
        <ele>2680.77</ele>
        <time>2023-02-16T12:27:24Z</time>
      </trkpt>
      <trkpt lat="44.80214" lon="6.78263">
        <ele>2675.49</ele>
        <time>2023-02-16T12:27:37Z</time>
      </trkpt>
      <trkpt lat="44.8021" lon="6.78271">
        <ele>2671.16</ele>
        <time>2023-02-16T12:27:55Z</time>
      </trkpt>
      <trkpt lat="44.802" lon="6.78259">
        <ele>2665.39</ele>
        <time>2023-02-16T12:28:04Z</time>
      </trkpt>
      <trkpt lat="44.80191" lon="6.78269">
        <ele>2655.3</ele>
        <time>2023-02-16T12:28:18Z</time>
      </trkpt>
      <trkpt lat="44.80131" lon="6.78317">
        <ele>2613.48</ele>
        <time>2023-02-16T12:29:19Z</time>
      </trkpt>
      <trkpt lat="44.80037" lon="6.78097">
        <ele>2553.88</ele>
        <time>2023-02-16T12:31:10Z</time>
      </trkpt>
      <trkpt lat="44.80013" lon="6.78033">
        <ele>2536.1</ele>
        <time>2023-02-16T12:31:45Z</time>
      </trkpt>
      <trkpt lat="44.8001" lon="6.78024">
        <ele>2535.13</ele>
        <time>2023-02-16T12:32:40Z</time>
      </trkpt>
      <trkpt lat="44.80001" lon="6.77931">
        <ele>2524.08</ele>
        <time>2023-02-16T12:33:14Z</time>
      </trkpt>
      <trkpt lat="44.79925" lon="6.77818">
        <ele>2483.7</ele>
        <time>2023-02-16T12:34:05Z</time>
      </trkpt>
      <trkpt lat="44.79864" lon="6.77598">
        <ele>2455.34</ele>
        <time>2023-02-16T12:35:49Z</time>
      </trkpt>
      <trkpt lat="44.79857" lon="6.77608">
        <ele>2451.5</ele>
        <time>2023-02-16T12:35:57Z</time>
      </trkpt>
      <trkpt lat="44.79827" lon="6.77614">
        <ele>2435.64</ele>
        <time>2023-02-16T12:36:27Z</time>
      </trkpt>
      <trkpt lat="44.79818" lon="6.77636">
        <ele>2431.79</ele>
        <time>2023-02-16T12:36:44Z</time>
      </trkpt>
      <trkpt lat="44.79806" lon="6.7762">
        <ele>2427.95</ele>
        <time>2023-02-16T12:36:55Z</time>
      </trkpt>
      <trkpt lat="44.798" lon="6.77637">
        <ele>2423.62</ele>
        <time>2023-02-16T12:37:16Z</time>
      </trkpt>
      <trkpt lat="44.79785" lon="6.77617">
        <ele>2412.57</ele>
        <time>2023-02-16T12:37:37Z</time>
      </trkpt>
      <trkpt lat="44.79776" lon="6.7762">
        <ele>2408.24</ele>
        <time>2023-02-16T12:37:46Z</time>
      </trkpt>
      <trkpt lat="44.79757" lon="6.77592">
        <ele>2395.26</ele>
        <time>2023-02-16T12:38:05Z</time>
      </trkpt>
      <trkpt lat="44.79759" lon="6.77561">
        <ele>2389.49</ele>
        <time>2023-02-16T12:38:16Z</time>
      </trkpt>
      <trkpt lat="44.79762" lon="6.77548">
        <ele>2387.09</ele>
        <time>2023-02-16T12:38:30Z</time>
      </trkpt>
      <trkpt lat="44.79809" lon="6.77429">
        <ele>2366.42</ele>
        <time>2023-02-16T12:39:30Z</time>
      </trkpt>
      <trkpt lat="44.798" lon="6.77393">
        <ele>2351.52</ele>
        <time>2023-02-16T12:40:15Z</time>
      </trkpt>
      <trkpt lat="44.79799" lon="6.77327">
        <ele>2334.22</ele>
        <time>2023-02-16T12:40:54Z</time>
      </trkpt>
      <trkpt lat="44.7974" lon="6.77263">
        <ele>2294.32</ele>
        <time>2023-02-16T12:42:12Z</time>
      </trkpt>
      <trkpt lat="44.7974" lon="6.77263">
        <ele>2292.88</ele>
        <time>2023-02-16T12:44:06Z</time>
      </trkpt>
      <trkpt lat="44.79713" lon="6.77211">
        <ele>2273.66</ele>
        <time>2023-02-16T12:46:30Z</time>
      </trkpt>
      <trkpt lat="44.7971" lon="6.772">
        <ele>2270.29</ele>
        <time>2023-02-16T12:46:48Z</time>
      </trkpt>
      <trkpt lat="44.79691" lon="6.77146">
        <ele>2251.06</ele>
        <time>2023-02-16T12:47:16Z</time>
      </trkpt>
      <trkpt lat="44.7969" lon="6.77133">
        <ele>2246.74</ele>
        <time>2023-02-16T12:47:52Z</time>
      </trkpt>
      <trkpt lat="44.79693" lon="6.7712">
        <ele>2246.26</ele>
        <time>2023-02-16T12:48:31Z</time>
      </trkpt>
      <trkpt lat="44.79714" lon="6.77101">
        <ele>2242.41</ele>
        <time>2023-02-16T12:48:46Z</time>
      </trkpt>
      <trkpt lat="44.79712" lon="6.77088">
        <ele>2239.05</ele>
        <time>2023-02-16T12:49:00Z</time>
      </trkpt>
      <trkpt lat="44.79708" lon="6.77073">
        <ele>2233.28</ele>
        <time>2023-02-16T12:49:19Z</time>
      </trkpt>
      <trkpt lat="44.79699" lon="6.77057">
        <ele>2230.88</ele>
        <time>2023-02-16T12:49:28Z</time>
      </trkpt>
      <trkpt lat="44.79702" lon="6.77043">
        <ele>2224.15</ele>
        <time>2023-02-16T12:50:14Z</time>
      </trkpt>
      <trkpt lat="44.79698" lon="6.77024">
        <ele>2218.38</ele>
        <time>2023-02-16T12:50:28Z</time>
      </trkpt>
      <trkpt lat="44.79694" lon="6.77013">
        <ele>2214.53</ele>
        <time>2023-02-16T12:50:52Z</time>
      </trkpt>
      <trkpt lat="44.79696" lon="6.77003">
        <ele>2210.21</ele>
        <time>2023-02-16T12:51:11Z</time>
      </trkpt>
      <trkpt lat="44.79689" lon="6.76985">
        <ele>2202.52</ele>
        <time>2023-02-16T12:51:44Z</time>
      </trkpt>
      <trkpt lat="44.79693" lon="6.76969">
        <ele>2194.83</ele>
        <time>2023-02-16T12:52:31Z</time>
      </trkpt>
      <trkpt lat="44.79701" lon="6.76963">
        <ele>2190.5</ele>
        <time>2023-02-16T12:52:45Z</time>
      </trkpt>
      <trkpt lat="44.79705" lon="6.76951">
        <ele>2187.14</ele>
        <time>2023-02-16T12:53:02Z</time>
      </trkpt>
      <trkpt lat="44.79711" lon="6.76922">
        <ele>2180.89</ele>
        <time>2023-02-16T12:53:18Z</time>
      </trkpt>
      <trkpt lat="44.7971" lon="6.76898">
        <ele>2171.76</ele>
        <time>2023-02-16T12:53:40Z</time>
      </trkpt>
      <trkpt lat="44.79699" lon="6.76863">
        <ele>2154.45</ele>
        <time>2023-02-16T12:54:33Z</time>
      </trkpt>
      <trkpt lat="44.79694" lon="6.76842">
        <ele>2145.32</ele>
        <time>2023-02-16T12:54:52Z</time>
      </trkpt>
      <trkpt lat="44.797" lon="6.76816">
        <ele>2138.11</ele>
        <time>2023-02-16T12:55:02Z</time>
      </trkpt>
      <trkpt lat="44.7971" lon="6.76789">
        <ele>2131.38</ele>
        <time>2023-02-16T12:55:23Z</time>
      </trkpt>
      <trkpt lat="44.7972" lon="6.76773">
        <ele>2126.09</ele>
        <time>2023-02-16T12:55:46Z</time>
      </trkpt>
      <trkpt lat="44.79679" lon="6.76731">
        <ele>2114.56</ele>
        <time>2023-02-16T12:56:12Z</time>
      </trkpt>
      <trkpt lat="44.7966" lon="6.76682">
        <ele>2108.79</ele>
        <time>2023-02-16T12:56:40Z</time>
      </trkpt>
      <trkpt lat="44.79658" lon="6.76649">
        <ele>2108.31</ele>
        <time>2023-02-16T12:56:58Z</time>
      </trkpt>
      <trkpt lat="44.79659" lon="6.76632">
        <ele>2108.79</ele>
        <time>2023-02-16T12:57:19Z</time>
      </trkpt>
      <trkpt lat="44.79641" lon="6.76603">
        <ele>2108.79</ele>
        <time>2023-02-16T12:57:48Z</time>
      </trkpt>
      <trkpt lat="44.79568" lon="6.7655">
        <ele>2105.91</ele>
        <time>2023-02-16T12:58:29Z</time>
      </trkpt>
      <trkpt lat="44.79551" lon="6.76544">
        <ele>2105.42</ele>
        <time>2023-02-16T12:58:40Z</time>
      </trkpt>
      <trkpt lat="44.79532" lon="6.76536">
        <ele>2104.94</ele>
        <time>2023-02-16T12:58:51Z</time>
      </trkpt>
      <trkpt lat="44.79503" lon="6.76545">
        <ele>2103.02</ele>
        <time>2023-02-16T12:58:59Z</time>
      </trkpt>
      <trkpt lat="44.79488" lon="6.76549">
        <ele>2103.98</ele>
        <time>2023-02-16T12:59:24Z</time>
      </trkpt>
      <trkpt lat="44.79474" lon="6.76556">
        <ele>2105.42</ele>
        <time>2023-02-16T12:59:53Z</time>
      </trkpt>
      <trkpt lat="44.79462" lon="6.76558">
        <ele>2105.91</ele>
        <time>2023-02-16T13:00:16Z</time>
      </trkpt>
      <trkpt lat="44.79461" lon="6.76557">
        <ele>2106.87</ele>
        <time>2023-02-16T13:03:29Z</time>
      </trkpt>
      <trkpt lat="44.7945" lon="6.76558">
        <ele>2105.42</ele>
        <time>2023-02-16T13:03:44Z</time>
      </trkpt>
      <trkpt lat="44.7944" lon="6.76559">
        <ele>2104.46</ele>
        <time>2023-02-16T13:03:48Z</time>
      </trkpt>
      <trkpt lat="44.79425" lon="6.76522">
        <ele>2101.1</ele>
        <time>2023-02-16T13:03:56Z</time>
      </trkpt>
      <trkpt lat="44.79418" lon="6.76529">
        <ele>2099.66</ele>
        <time>2023-02-16T13:03:58Z</time>
      </trkpt>
      <trkpt lat="44.79408" lon="6.7654">
        <ele>2099.18</ele>
        <time>2023-02-16T13:04:01Z</time>
      </trkpt>
      <trkpt lat="44.79399" lon="6.76536">
        <ele>2093.89</ele>
        <time>2023-02-16T13:04:05Z</time>
      </trkpt>
      <trkpt lat="44.79389" lon="6.76533">
        <ele>2091.97</ele>
        <time>2023-02-16T13:04:08Z</time>
      </trkpt>
      <trkpt lat="44.79382" lon="6.76546">
        <ele>2090.52</ele>
        <time>2023-02-16T13:04:11Z</time>
      </trkpt>
      <trkpt lat="44.79374" lon="6.76548">
        <ele>2088.6</ele>
        <time>2023-02-16T13:04:13Z</time>
      </trkpt>
      <trkpt lat="44.79366" lon="6.76542">
        <ele>2086.68</ele>
        <time>2023-02-16T13:04:15Z</time>
      </trkpt>
      <trkpt lat="44.79353" lon="6.76542">
        <ele>2084.28</ele>
        <time>2023-02-16T13:04:18Z</time>
      </trkpt>
      <trkpt lat="44.79345" lon="6.76535">
        <ele>2082.83</ele>
        <time>2023-02-16T13:04:26Z</time>
      </trkpt>
      <trkpt lat="44.79338" lon="6.76547">
        <ele>2080.91</ele>
        <time>2023-02-16T13:04:30Z</time>
      </trkpt>
      <trkpt lat="44.79329" lon="6.76543">
        <ele>2078.03</ele>
        <time>2023-02-16T13:04:33Z</time>
      </trkpt>
      <trkpt lat="44.79321" lon="6.76535">
        <ele>2073.22</ele>
        <time>2023-02-16T13:04:44Z</time>
      </trkpt>
      <trkpt lat="44.79315" lon="6.76527">
        <ele>2071.78</ele>
        <time>2023-02-16T13:04:48Z</time>
      </trkpt>
      <trkpt lat="44.79306" lon="6.76528">
        <ele>2068.89</ele>
        <time>2023-02-16T13:04:53Z</time>
      </trkpt>
      <trkpt lat="44.7929" lon="6.76522">
        <ele>2065.05</ele>
        <time>2023-02-16T13:05:18Z</time>
      </trkpt>
      <trkpt lat="44.7928" lon="6.76529">
        <ele>2063.13</ele>
        <time>2023-02-16T13:05:22Z</time>
      </trkpt>
      <trkpt lat="44.79268" lon="6.76537">
        <ele>2061.2</ele>
        <time>2023-02-16T13:05:25Z</time>
      </trkpt>
      <trkpt lat="44.79258" lon="6.76537">
        <ele>2060.24</ele>
        <time>2023-02-16T13:05:27Z</time>
      </trkpt>
      <trkpt lat="44.79248" lon="6.7654">
        <ele>2058.8</ele>
        <time>2023-02-16T13:05:29Z</time>
      </trkpt>
      <trkpt lat="44.79235" lon="6.76542">
        <ele>2058.8</ele>
        <time>2023-02-16T13:05:32Z</time>
      </trkpt>
      <trkpt lat="44.79195" lon="6.76528">
        <ele>2056.4</ele>
        <time>2023-02-16T13:05:42Z</time>
      </trkpt>
      <trkpt lat="44.7917" lon="6.76504">
        <ele>2054.96</ele>
        <time>2023-02-16T13:05:50Z</time>
      </trkpt>
      <trkpt lat="44.79147" lon="6.76488">
        <ele>2052.07</ele>
        <time>2023-02-16T13:05:56Z</time>
      </trkpt>
      <trkpt lat="44.7912" lon="6.76497">
        <ele>2051.59</ele>
        <time>2023-02-16T13:06:07Z</time>
      </trkpt>
      <trkpt lat="44.7911" lon="6.76498">
        <ele>2053.03</ele>
        <time>2023-02-16T13:06:19Z</time>
      </trkpt>
      <trkpt lat="44.79085" lon="6.76483">
        <ele>2050.15</ele>
        <time>2023-02-16T13:06:28Z</time>
      </trkpt>
      <trkpt lat="44.79073" lon="6.76471">
        <ele>2048.23</ele>
        <time>2023-02-16T13:06:31Z</time>
      </trkpt>
      <trkpt lat="44.79061" lon="6.76461">
        <ele>2046.78</ele>
        <time>2023-02-16T13:06:34Z</time>
      </trkpt>
      <trkpt lat="44.79052" lon="6.76458">
        <ele>2045.82</ele>
        <time>2023-02-16T13:06:36Z</time>
      </trkpt>
      <trkpt lat="44.79031" lon="6.76455">
        <ele>2043.9</ele>
        <time>2023-02-16T13:06:45Z</time>
      </trkpt>
      <trkpt lat="44.79018" lon="6.76444">
        <ele>2041.5</ele>
        <time>2023-02-16T13:06:58Z</time>
      </trkpt>
      <trkpt lat="44.79015" lon="6.76456">
        <ele>2039.57</ele>
        <time>2023-02-16T13:07:09Z</time>
      </trkpt>
      <trkpt lat="44.79002" lon="6.76452">
        <ele>2036.69</ele>
        <time>2023-02-16T13:07:14Z</time>
      </trkpt>
      <trkpt lat="44.78985" lon="6.76442">
        <ele>2029.96</ele>
        <time>2023-02-16T13:07:24Z</time>
      </trkpt>
      <trkpt lat="44.78976" lon="6.76456">
        <ele>2023.71</ele>
        <time>2023-02-16T13:07:42Z</time>
      </trkpt>
      <trkpt lat="44.78958" lon="6.76444">
        <ele>2018.43</ele>
        <time>2023-02-16T13:08:04Z</time>
      </trkpt>
      <trkpt lat="44.78933" lon="6.76424">
        <ele>2012.18</ele>
        <time>2023-02-16T13:08:21Z</time>
      </trkpt>
      <trkpt lat="44.78864" lon="6.76427">
        <ele>2000.16</ele>
        <time>2023-02-16T13:09:07Z</time>
      </trkpt>
      <trkpt lat="44.78864" lon="6.76429">
        <ele>1999.2</ele>
        <time>2023-02-16T13:10:25Z</time>
      </trkpt>
      <trkpt lat="44.78849" lon="6.76426">
        <ele>1996.8</ele>
        <time>2023-02-16T13:11:18Z</time>
      </trkpt>
      <trkpt lat="44.78838" lon="6.76429">
        <ele>1994.87</ele>
        <time>2023-02-16T13:11:27Z</time>
      </trkpt>
      <trkpt lat="44.7881" lon="6.76436">
        <ele>1990.07</ele>
        <time>2023-02-16T13:11:55Z</time>
      </trkpt>
      <trkpt lat="44.78791" lon="6.76442">
        <ele>1986.22</ele>
        <time>2023-02-16T13:12:03Z</time>
      </trkpt>
      <trkpt lat="44.78771" lon="6.76446">
        <ele>1979.97</ele>
        <time>2023-02-16T13:12:20Z</time>
      </trkpt>
      <trkpt lat="44.78753" lon="6.76446">
        <ele>1979.01</ele>
        <time>2023-02-16T13:12:29Z</time>
      </trkpt>
      <trkpt lat="44.78756" lon="6.76451">
        <ele>1974.69</ele>
        <time>2023-02-16T13:13:01Z</time>
      </trkpt>
      <trkpt lat="44.78766" lon="6.76465">
        <ele>1971.8</ele>
        <time>2023-02-16T13:13:14Z</time>
      </trkpt>
      <trkpt lat="44.7875" lon="6.76468">
        <ele>1967.96</ele>
        <time>2023-02-16T13:13:27Z</time>
      </trkpt>
      <trkpt lat="44.78757" lon="6.76484">
        <ele>1965.55</ele>
        <time>2023-02-16T13:13:39Z</time>
      </trkpt>
      <trkpt lat="44.78751" lon="6.76495">
        <ele>1961.71</ele>
        <time>2023-02-16T13:13:46Z</time>
      </trkpt>
      <trkpt lat="44.78732" lon="6.76496">
        <ele>1956.9</ele>
        <time>2023-02-16T13:13:49Z</time>
      </trkpt>
      <trkpt lat="44.78713" lon="6.76513">
        <ele>1953.54</ele>
        <time>2023-02-16T13:13:54Z</time>
      </trkpt>
      <trkpt lat="44.78707" lon="6.76519">
        <ele>1951.13</ele>
        <time>2023-02-16T13:14:10Z</time>
      </trkpt>
      <trkpt lat="44.78701" lon="6.76517">
        <ele>1949.69</ele>
        <time>2023-02-16T13:15:45Z</time>
      </trkpt>
      <trkpt lat="44.78688" lon="6.76517">
        <ele>1948.73</ele>
        <time>2023-02-16T13:16:04Z</time>
      </trkpt>
      <trkpt lat="44.78666" lon="6.7653">
        <ele>1945.85</ele>
        <time>2023-02-16T13:16:09Z</time>
      </trkpt>
      <trkpt lat="44.78641" lon="6.76526">
        <ele>1942.48</ele>
        <time>2023-02-16T13:16:13Z</time>
      </trkpt>
      <trkpt lat="44.78618" lon="6.76525">
        <ele>1940.56</ele>
        <time>2023-02-16T13:16:17Z</time>
      </trkpt>
      <trkpt lat="44.78598" lon="6.76534">
        <ele>1936.71</ele>
        <time>2023-02-16T13:16:21Z</time>
      </trkpt>
      <trkpt lat="44.78591" lon="6.76544">
        <ele>1935.27</ele>
        <time>2023-02-16T13:16:23Z</time>
      </trkpt>
      <trkpt lat="44.78585" lon="6.76555">
        <ele>1932.87</ele>
        <time>2023-02-16T13:16:25Z</time>
      </trkpt>
      <trkpt lat="44.78572" lon="6.76551">
        <ele>1931.91</ele>
        <time>2023-02-16T13:16:28Z</time>
      </trkpt>
      <trkpt lat="44.78563" lon="6.76544">
        <ele>1931.43</ele>
        <time>2023-02-16T13:16:30Z</time>
      </trkpt>
      <trkpt lat="44.78547" lon="6.76553">
        <ele>1930.46</ele>
        <time>2023-02-16T13:16:35Z</time>
      </trkpt>
      <trkpt lat="44.78536" lon="6.76567">
        <ele>1929.5</ele>
        <time>2023-02-16T13:16:47Z</time>
      </trkpt>
      <trkpt lat="44.78482" lon="6.76565">
        <ele>1925.66</ele>
        <time>2023-02-16T13:17:17Z</time>
      </trkpt>
      <trkpt lat="44.78447" lon="6.76557">
        <ele>1923.74</ele>
        <time>2023-02-16T13:17:29Z</time>
      </trkpt>
      <trkpt lat="44.78408" lon="6.7655">
        <ele>1921.33</ele>
        <time>2023-02-16T13:17:42Z</time>
      </trkpt>
      <trkpt lat="44.78375" lon="6.76551">
        <ele>1919.41</ele>
        <time>2023-02-16T13:17:53Z</time>
      </trkpt>
      <trkpt lat="44.78357" lon="6.76555">
        <ele>1916.53</ele>
        <time>2023-02-16T13:17:57Z</time>
      </trkpt>
      <trkpt lat="44.78324" lon="6.7656">
        <ele>1914.6</ele>
        <time>2023-02-16T13:18:07Z</time>
      </trkpt>
      <trkpt lat="44.78219" lon="6.76555">
        <ele>1908.35</ele>
        <time>2023-02-16T13:18:43Z</time>
      </trkpt>
      <trkpt lat="44.78165" lon="6.76565">
        <ele>1901.14</ele>
        <time>2023-02-16T13:20:03Z</time>
      </trkpt>
      <trkpt lat="44.78145" lon="6.76577">
        <ele>1898.26</ele>
        <time>2023-02-16T13:20:06Z</time>
      </trkpt>
      <trkpt lat="44.78116" lon="6.76594">
        <ele>1894.9</ele>
        <time>2023-02-16T13:20:10Z</time>
      </trkpt>
      <trkpt lat="44.78091" lon="6.76611">
        <ele>1890.57</ele>
        <time>2023-02-16T13:20:15Z</time>
      </trkpt>
      <trkpt lat="44.78081" lon="6.76599">
        <ele>1886.72</ele>
        <time>2023-02-16T13:20:18Z</time>
      </trkpt>
      <trkpt lat="44.78063" lon="6.76602">
        <ele>1883.36</ele>
        <time>2023-02-16T13:20:21Z</time>
      </trkpt>
      <trkpt lat="44.78049" lon="6.76606">
        <ele>1880.48</ele>
        <time>2023-02-16T13:20:24Z</time>
      </trkpt>
      <trkpt lat="44.78037" lon="6.76606">
        <ele>1875.67</ele>
        <time>2023-02-16T13:20:31Z</time>
      </trkpt>
      <trkpt lat="44.78028" lon="6.76609">
        <ele>1874.23</ele>
        <time>2023-02-16T13:21:15Z</time>
      </trkpt>
      <trkpt lat="44.78018" lon="6.76612">
        <ele>1871.82</ele>
        <time>2023-02-16T13:21:29Z</time>
      </trkpt>
      <trkpt lat="44.78006" lon="6.76623">
        <ele>1868.94</ele>
        <time>2023-02-16T13:21:58Z</time>
      </trkpt>
      <trkpt lat="44.77996" lon="6.76629">
        <ele>1868.94</ele>
        <time>2023-02-16T13:22:01Z</time>
      </trkpt>
      <trkpt lat="44.77988" lon="6.76634">
        <ele>1867.98</ele>
        <time>2023-02-16T13:22:03Z</time>
      </trkpt>
      <trkpt lat="44.77978" lon="6.76638">
        <ele>1866.54</ele>
        <time>2023-02-16T13:22:05Z</time>
      </trkpt>
      <trkpt lat="44.7796" lon="6.76641">
        <ele>1863.17</ele>
        <time>2023-02-16T13:22:08Z</time>
      </trkpt>
      <trkpt lat="44.77935" lon="6.76647">
        <ele>1861.25</ele>
        <time>2023-02-16T13:22:12Z</time>
      </trkpt>
      <trkpt lat="44.77894" lon="6.76656">
        <ele>1857.89</ele>
        <time>2023-02-16T13:22:19Z</time>
      </trkpt>
      <trkpt lat="44.77875" lon="6.76655">
        <ele>1856.44</ele>
        <time>2023-02-16T13:22:23Z</time>
      </trkpt>
      <trkpt lat="44.77825" lon="6.76655">
        <ele>1853.08</ele>
        <time>2023-02-16T13:22:37Z</time>
      </trkpt>
      <trkpt lat="44.7781" lon="6.76666">
        <ele>1853.56</ele>
        <time>2023-02-16T13:22:48Z</time>
      </trkpt>
      <trkpt lat="44.77783" lon="6.76682">
        <ele>1852.12</ele>
        <time>2023-02-16T13:23:01Z</time>
      </trkpt>
      <trkpt lat="44.77762" lon="6.76691">
        <ele>1851.16</ele>
        <time>2023-02-16T13:23:11Z</time>
      </trkpt>
      <trkpt lat="44.77735" lon="6.76702">
        <ele>1849.23</ele>
        <time>2023-02-16T13:23:22Z</time>
      </trkpt>
      <trkpt lat="44.77719" lon="6.76704">
        <ele>1848.27</ele>
        <time>2023-02-16T13:23:27Z</time>
      </trkpt>
      <trkpt lat="44.77704" lon="6.76709">
        <ele>1846.83</ele>
        <time>2023-02-16T13:23:30Z</time>
      </trkpt>
      <trkpt lat="44.77675" lon="6.76715">
        <ele>1845.87</ele>
        <time>2023-02-16T13:23:40Z</time>
      </trkpt>
      <trkpt lat="44.77667" lon="6.76711">
        <ele>1845.39</ele>
        <time>2023-02-16T13:23:43Z</time>
      </trkpt>
      <trkpt lat="44.77635" lon="6.76703">
        <ele>1839.62</ele>
        <time>2023-02-16T13:23:49Z</time>
      </trkpt>
      <trkpt lat="44.77626" lon="6.76707">
        <ele>1839.14</ele>
        <time>2023-02-16T13:23:52Z</time>
      </trkpt>
      <trkpt lat="44.77618" lon="6.76712">
        <ele>1836.74</ele>
        <time>2023-02-16T13:24:48Z</time>
      </trkpt>
      <trkpt lat="44.77614" lon="6.76705">
        <ele>1836.74</ele>
        <time>2023-02-16T13:25:55Z</time>
      </trkpt>
      <trkpt lat="44.77613" lon="6.76707">
        <ele>1835.29</ele>
        <time>2023-02-16T13:27:10Z</time>
      </trkpt>
    </trkseg>
  </trk>
</gpx>